»·PEaware :: N149CD KVNY-KSBA

N149CD :: KVNY-KSBA

FLIGHT INFORMATION

Flight Status: Arrived
Operator: Privately registered:
United States
More flights under this callsign
Pilot: Nathan E. (30132)
Aircraft: CESSNA 172 SKYHAWK
(C172)
More flights by this aircraft type
Origin: KVNY Van Nuys
United States
Destination: KSBA Santa Barbara Mun
United States
More flights between these airports :: More routes between these airports
Route: FIM V186 V186 DEANO V27 KWANG
File this flight plan on PilotEdge
Remarks: TEC route BURP39
Altitude:
(Current/Filed)
6,000ft
Speed:
(Current/Filed)
110kts
Departed: 21-Sep-20 01:41 PM
Arrived: 21-Sep-20 02:25 PM
Distance/Time
Traveled:
68nm/0:44
Distance/Time
To Go:
Arrived

Flight Plot

Page will automatically refresh every two minutes.

Flight plan parsing failed; only flown route is shown


Map Options




Map Legend


Flown Route
Filed Route
Departure Airport
Arrival Airport
Navaid (VOR, NDB)
Fix

Horizontal Profiles

Position Reports

Time Latitude Longitude Heading Altitude Ground
Speed
21-Sep-20 13:32 34.215501 -118.498360 358 806ft 0kts
21-Sep-20 13:33 34.215501 -118.498360 358 806ft 0kts
21-Sep-20 13:34 34.215501 -118.498360 358 806ft 0kts
21-Sep-20 13:35 34.215501 -118.498360 358 806ft 0kts
21-Sep-20 13:36 34.217579 -118.495755 99 806ft 14kts
21-Sep-20 13:37 34.219149 -118.492578 356 806ft 13kts
21-Sep-20 13:38 34.219335 -118.492217 98 806ft 0kts
21-Sep-20 13:39 34.219058 -118.491824 135 806ft 18kts
21-Sep-20 13:40 34.204482 -118.489937 174 1143ft 74kts
21-Sep-20 13:41 34.183497 -118.490889 221 1936ft 78kts
21-Sep-20 13:42 34.167386 -118.508520 224 2729ft 79kts
21-Sep-20 13:43 34.151116 -118.526379 224 3483ft 79kts
21-Sep-20 13:44 34.134842 -118.545664 247 4153ft 85kts
21-Sep-20 13:45 34.137117 -118.573829 281 4827ft 86kts
21-Sep-20 13:46 34.141028 -118.602610 281 5469ft 88kts
21-Sep-20 13:48 34.145438 -118.631838 281 6023ft 96kts
21-Sep-20 13:49 34.152524 -118.665841 281 6026ft 105kts
21-Sep-20 13:50 34.159974 -118.700222 281 6028ft 105kts
21-Sep-20 13:51 34.167722 -118.734581 281 6031ft 106kts
21-Sep-20 13:52 34.175470 -118.768871 278 6033ft 106kts
21-Sep-20 13:53 34.181887 -118.803880 277 6027ft 107kts
21-Sep-20 13:54 34.188274 -118.838935 277 6027ft 107kts
21-Sep-20 13:55 34.194643 -118.873972 277 6027ft 106kts
21-Sep-20 13:56 34.201013 -118.909077 277 6027ft 106kts
21-Sep-20 13:57 34.207342 -118.944015 277 6028ft 106kts
21-Sep-20 13:58 34.213662 -118.978963 277 6027ft 106kts
21-Sep-20 13:59 34.219936 -119.013720 277 6027ft 106kts
21-Sep-20 14:00 34.226209 -119.048533 277 6027ft 105kts
21-Sep-20 14:01 34.232438 -119.083167 277 6027ft 105kts
21-Sep-20 14:02 34.238661 -119.117822 277 6026ft 105kts
21-Sep-20 14:03 34.244891 -119.152564 277 6026ft 105kts
21-Sep-20 14:04 34.251107 -119.187297 277 6026ft 105kts
21-Sep-20 14:04 34.256276 -119.216224 277 6026ft 106kts
21-Sep-20 14:06 34.263544 -119.256962 277 6026ft 106kts
21-Sep-20 14:07 34.269741 -119.291743 277 6026ft 106kts
21-Sep-20 14:07 34.274935 -119.320917 277 5987ft 108kts
21-Sep-20 14:09 34.282412 -119.362915 278 5396ft 110kts
21-Sep-20 14:09 34.287729 -119.392911 278 4975ft 109kts
21-Sep-20 14:10 34.294101 -119.428937 278 4466ft 109kts
21-Sep-20 14:11 34.300422 -119.464735 279 4032ft 107kts
21-Sep-20 14:13 34.307528 -119.505449 278 4022ft 105kts
21-Sep-20 14:13 34.316169 -119.533370 293 4014ft 107kts
21-Sep-20 14:14 34.329252 -119.566105 291 4007ft 108kts
21-Sep-20 14:15 34.342035 -119.599014 291 3995ft 108kts
21-Sep-20 14:16 34.354753 -119.631790 291 3516ft 107kts
21-Sep-20 14:17 34.367476 -119.664686 291 2940ft 109kts
21-Sep-20 14:18 34.380409 -119.698178 292 2358ft 107kts
21-Sep-20 14:19 34.392128 -119.730955 291 1796ft 106kts
21-Sep-20 14:20 34.404615 -119.763525 291 1238ft 107kts
21-Sep-20 14:21 34.416359 -119.794144 291 724ft 83kts
21-Sep-20 14:22 34.425125 -119.815458 290 374ft 64kts
21-Sep-20 14:23 34.427884 -119.835643 267 17ft 55kts
21-Sep-20 14:24 34.428423 -119.841927 346 14ft 0kts
21-Sep-20 14:25 34.428979 -119.838256 88 13ft 25kts
21-Sep-20 14:26 34.428761 -119.834311 182 10ft 0kts
21-Sep-20 14:27 34.428761 -119.834311 182 10ft 0kts
21-Sep-20 14:28 34.428761 -119.834311 182 10ft 0kts

Navigation Log

Ident Type
Flight plan parsing failed, navigation log unavailable